createdAt,value
2022-09-06T00:01:24.792Z,37.38
2022-09-06T00:06:26.876Z,37.43
2022-09-06T00:11:28.963Z,37.73
2022-09-06T00:16:30.819Z,37.89
2022-09-06T00:21:32.637Z,38.29
2022-09-06T00:26:34.642Z,38.38
2022-09-06T00:31:36.674Z,38.85
2022-09-06T00:36:38.612Z,39.28
2022-09-06T00:41:40.996Z,39.14
2022-09-06T00:46:46.494Z,39.42
2022-09-06T00:51:48.311Z,39.46
2022-09-06T00:56:50.848Z,39.49
2022-09-06T01:01:53.345Z,39.75
2022-09-06T01:07:23.443Z,40.27
2022-09-06T01:12:25.274Z,40.13
2022-09-06T01:17:42.409Z,40.31
2022-09-06T01:23:00.475Z,40.50
2022-09-06T01:28:28.115Z,40.49
2022-09-06T01:33:40.925Z,40.32
2022-09-06T01:38:43.053Z,40.43
2022-09-06T01:43:49.378Z,40.46
2022-09-06T01:49:30.593Z,40.69
2022-09-06T01:55:00.230Z,40.85
2022-09-06T02:00:12.289Z,40.77
2022-09-06T02:05:23.108Z,40.96
2022-09-06T02:10:32.335Z,40.59
2022-09-06T02:15:39.425Z,40.72
2022-09-06T02:20:45.600Z,40.83
2022-09-06T02:25:53.953Z,40.92
2022-09-06T02:31:03.169Z,40.62
2022-09-06T02:36:08.653Z,40.75
2022-09-06T02:41:10.988Z,41.02
2022-09-06T02:46:12.977Z,40.96
2022-09-06T02:51:15.238Z,40.89
2022-09-06T02:56:17.331Z,40.83
2022-09-06T03:01:19.313Z,41.16
2022-09-06T03:06:21.333Z,40.65
2022-09-06T03:11:23.142Z,40.88
2022-09-06T03:16:25.272Z,40.61
2022-09-06T03:21:27.411Z,40.96
2022-09-06T03:26:30.760Z,40.65
2022-09-06T03:31:32.812Z,40.58
2022-09-06T03:36:34.694Z,40.55
2022-09-06T03:41:36.503Z,40.67
2022-09-06T03:46:38.573Z,40.78
2022-09-06T03:51:40.645Z,40.19
2022-09-06T03:56:42.631Z,40.25
2022-09-06T04:01:45.045Z,40.32
2022-09-06T04:06:46.931Z,40.07
2022-09-06T04:11:48.937Z,40.41
2022-09-06T04:16:51.039Z,40.36
2022-09-06T04:21:53.050Z,40.29
2022-09-06T04:26:55.011Z,40.18
2022-09-06T04:31:57.058Z,40.00
2022-09-06T04:36:59.067Z,40.26
2022-09-06T04:42:01.025Z,40.17
2022-09-06T04:47:15.211Z,40.06
2022-09-06T04:52:17.417Z,40.09
2022-09-06T04:57:19.424Z,39.90
2022-09-06T05:02:21.385Z,40.05
2022-09-06T05:07:23.473Z,39.97
2022-09-06T05:12:25.351Z,39.79
2022-09-06T05:17:27.319Z,39.81
2022-09-06T05:22:29.660Z,39.90
2022-09-06T05:27:31.746Z,39.71
2022-09-06T05:32:35.953Z,39.43
2022-09-06T05:37:37.761Z,39.66
2022-09-06T05:42:41.343Z,39.58
2022-09-06T05:47:43.591Z,39.53
2022-09-06T05:52:45.356Z,39.38
2022-09-06T05:57:47.182Z,39.33
2022-09-06T06:02:50.223Z,39.51
2022-09-06T06:07:52.463Z,39.66
2022-09-06T06:12:54.310Z,39.46
2022-09-06T06:17:56.264Z,39.42
2022-09-06T06:22:58.766Z,39.61
2022-09-06T06:28:00.880Z,39.41
2022-09-06T06:33:02.937Z,39.77
2022-09-06T06:38:05.153Z,39.64
2022-09-06T06:43:07.010Z,39.68
2022-09-06T06:48:08.780Z,39.51
2022-09-06T06:53:10.698Z,39.28
2022-09-06T06:58:12.545Z,39.01
2022-09-06T07:03:14.455Z,38.95
2022-09-06T07:08:17.025Z,39.06
2022-09-06T07:13:19.274Z,38.94
2022-09-06T07:18:21.235Z,39.26
2022-09-06T07:28:48.233Z,39.22
2022-09-06T07:33:55.122Z,39.44
2022-09-06T07:38:57.825Z,39.60
2022-09-06T07:43:59.949Z,39.68
2022-09-06T07:49:04.910Z,39.61
2022-09-06T07:59:29.844Z,39.41
2022-09-06T08:04:31.540Z,39.35
2022-09-06T08:09:33.316Z,39.34
2022-09-06T08:14:35.542Z,39.48
2022-09-06T08:19:37.560Z,39.60
2022-09-06T08:24:39.398Z,39.23
2022-09-06T08:29:41.205Z,40.16
2022-09-06T08:34:43.040Z,40.49
2022-09-06T08:39:45.129Z,40.53
2022-09-06T08:50:14.278Z,40.58
2022-09-06T08:55:38.002Z,40.48
2022-09-06T09:00:42.367Z,40.69
2022-09-06T09:05:49.120Z,40.46
2022-09-06T09:10:58.248Z,40.70
2022-09-06T09:16:00.340Z,40.86
2022-09-06T09:21:02.985Z,40.68
2022-09-06T09:26:15.233Z,40.78
2022-09-06T09:31:34.164Z,40.83
2022-09-06T09:36:36.554Z,40.82
2022-09-06T09:41:43.811Z,40.74
2022-09-06T09:46:45.609Z,40.92
2022-09-06T09:52:07.385Z,41.41
2022-09-06T09:57:18.073Z,41.18
2022-09-06T10:02:35.914Z,41.44
2022-09-06T10:07:56.158Z,41.13
2022-09-06T10:13:08.484Z,40.96
2022-09-06T10:18:34.124Z,40.51
2022-09-06T10:29:33.650Z,40.21
2022-09-06T10:35:06.490Z,40.73
2022-09-06T10:40:11.322Z,40.46
2022-09-06T10:45:32.006Z,40.41
2022-09-06T10:51:05.196Z,40.07
2022-09-06T10:56:11.649Z,40.06
2022-09-06T11:01:31.435Z,40.10
2022-09-06T11:06:36.898Z,39.88
2022-09-06T11:12:10.714Z,39.96
2022-09-06T11:17:23.281Z,39.90
2022-09-06T11:22:43.770Z,39.91
2022-09-06T11:27:52.332Z,39.50
2022-09-06T11:33:24.881Z,39.38
2022-09-06T11:38:27.716Z,38.96
2022-09-06T11:43:48.137Z,39.02
2022-09-06T11:49:02.966Z,38.56
2022-09-06T11:54:10.682Z,38.51
2022-09-06T11:59:24.214Z,37.95
2022-09-06T12:05:01.295Z,37.94
2022-09-06T12:10:31.755Z,37.72
2022-09-06T12:15:51.857Z,37.72
2022-09-06T12:20:54.524Z,37.63
2022-09-06T12:25:56.946Z,37.37
2022-09-06T12:30:59.663Z,37.06
2022-09-06T12:36:30.447Z,36.92
2022-09-06T12:41:42.950Z,36.83
2022-09-06T12:46:50.278Z,36.80
2022-09-06T12:52:07.672Z,36.84
2022-09-06T12:57:21.795Z,36.57
2022-09-06T13:02:43.005Z,36.25
2022-09-06T13:07:51.304Z,36.24
2022-09-06T13:12:54.594Z,36.11
2022-09-06T13:18:22.432Z,36.32
2022-09-06T13:23:24.300Z,36.32
2022-09-06T13:28:32.067Z,36.03
2022-09-06T13:33:35.339Z,34.21
2022-09-06T13:38:45.136Z,34.65
2022-09-06T13:43:48.786Z,34.85
2022-09-06T13:48:54.257Z,34.78
2022-09-06T13:54:10.851Z,34.72
2022-09-06T13:59:12.996Z,33.78
2022-09-06T14:04:19.870Z,33.51
2022-09-06T14:09:21.827Z,33.82
2022-09-06T14:14:24.725Z,34.24
2022-09-06T14:19:27.005Z,34.07
2022-09-06T14:24:29.234Z,33.87
2022-09-06T14:29:31.782Z,33.95
2022-09-06T14:34:33.669Z,33.96
2022-09-06T14:39:35.613Z,33.60
2022-09-06T14:44:37.475Z,33.63
2022-09-06T14:49:39.247Z,33.46
2022-09-06T14:54:41.205Z,33.70
2022-09-06T14:59:43.121Z,33.98
2022-09-06T15:04:46.066Z,32.73
2022-09-06T15:09:47.924Z,33.12
2022-09-06T15:14:50.019Z,33.09
2022-09-06T15:19:52.284Z,33.01
2022-09-06T15:24:54.384Z,32.99
2022-09-06T15:29:56.257Z,33.04
2022-09-06T15:35:04.307Z,31.23
2022-09-06T15:40:07.192Z,32.31
2022-09-06T15:45:10.019Z,31.91
2022-09-06T15:50:12.036Z,31.82
2022-09-06T15:55:32.310Z,31.76
2022-09-06T16:00:34.198Z,32.11
2022-09-06T16:10:58.459Z,32.38
2022-09-06T16:16:01.956Z,32.45
2022-09-06T16:21:24.645Z,32.47
2022-09-06T16:26:30.126Z,32.29
2022-09-06T16:31:39.170Z,31.98
2022-09-06T16:36:42.520Z,31.27
2022-09-06T16:41:46.493Z,30.99
2022-09-06T16:46:50.040Z,30.48
2022-09-06T16:51:52.719Z,30.16
2022-09-06T16:56:55.358Z,30.21
2022-09-06T17:01:57.412Z,30.69
2022-09-06T17:06:59.385Z,31.18
2022-09-06T17:12:01.300Z,31.23
2022-09-06T17:17:05.967Z,31.33
2022-09-06T17:22:10.437Z,31.52
2022-09-06T17:27:12.581Z,31.65
2022-09-06T17:32:14.493Z,31.71
2022-09-06T17:37:16.642Z,32.29
2022-09-06T17:42:18.484Z,32.86
2022-09-06T17:47:20.615Z,32.05
2022-09-06T17:52:22.735Z,32.15
2022-09-06T17:57:25.320Z,32.70
2022-09-06T18:02:27.307Z,32.58
2022-09-06T18:07:29.591Z,33.81
2022-09-06T18:12:31.793Z,34.15
2022-09-06T18:17:34.057Z,33.74
2022-09-06T18:22:38.472Z,34.23
2022-09-06T18:27:40.720Z,34.04
2022-09-06T18:32:43.783Z,34.21
2022-09-06T18:37:46.063Z,35.04
2022-09-06T18:42:48.071Z,34.94
2022-09-06T18:47:49.960Z,34.87
2022-09-06T18:52:51.797Z,35.36
2022-09-06T18:57:54.989Z,34.42
2022-09-06T19:02:56.870Z,35.03
2022-09-06T19:07:58.774Z,34.21
2022-09-06T19:13:00.670Z,34.35
2022-09-06T19:18:03.415Z,34.08
2022-09-06T19:23:05.256Z,34.50
2022-09-06T19:28:07.206Z,34.69
2022-09-06T19:33:09.181Z,34.16
2022-09-06T19:38:11.086Z,35.05
2022-09-06T19:43:13.186Z,34.19
2022-09-06T19:48:15.075Z,33.92
2022-09-06T19:53:16.980Z,34.22
2022-09-06T19:58:19.827Z,34.01
2022-09-06T20:03:22.047Z,34.44
2022-09-06T20:08:23.962Z,34.67
2022-09-06T20:13:27.276Z,34.57
2022-09-06T20:18:29.208Z,34.91
2022-09-06T20:23:34.204Z,35.28
2022-09-06T20:28:36.374Z,35.69
2022-09-06T20:33:39.759Z,35.71
2022-09-06T20:38:42.994Z,35.78
2022-09-06T20:43:45.370Z,36.07
2022-09-06T20:48:47.815Z,36.80
2022-09-06T20:54:00.723Z,37.56
2022-09-06T20:59:05.744Z,37.77
2022-09-06T21:04:09.876Z,38.11
2022-09-06T21:09:13.926Z,38.45
2022-09-06T21:14:15.986Z,38.66
2022-09-06T21:19:18.057Z,39.14
2022-09-06T21:24:20.010Z,39.18
2022-09-06T21:29:22.047Z,39.54
2022-09-06T21:34:23.969Z,39.65
2022-09-06T21:39:26.131Z,39.70
2022-09-06T21:44:27.996Z,39.74
2022-09-06T21:49:29.729Z,40.08
2022-09-06T21:54:31.654Z,40.22
2022-09-06T21:59:33.833Z,40.68
2022-09-06T22:04:36.061Z,40.89
2022-09-06T22:09:37.950Z,40.92
2022-09-06T22:14:39.950Z,40.97
2022-09-06T22:19:41.924Z,40.53
2022-09-06T22:24:44.200Z,40.30
2022-09-06T22:29:46.485Z,40.52
2022-09-06T22:34:48.487Z,40.93
2022-09-06T22:39:51.072Z,40.94
2022-09-06T22:44:54.379Z,41.02
2022-09-06T22:49:56.744Z,40.99
2022-09-06T22:54:58.617Z,41.00
2022-09-06T23:00:03.011Z,41.17
2022-09-06T23:05:05.219Z,41.02
2022-09-06T23:10:07.242Z,41.35
2022-09-06T23:15:09.681Z,41.46
2022-09-06T23:20:11.581Z,41.09
2022-09-06T23:25:13.488Z,41.11
2022-09-06T23:30:15.606Z,41.08
2022-09-06T23:35:17.649Z,41.12
2022-09-06T23:40:20.018Z,41.12
2022-09-06T23:45:21.945Z,41.01
2022-09-06T23:50:23.777Z,41.22
2022-09-06T23:55:25.658Z,41.05
